Hafnia Karava — 9V3231 — position and weather

sailwx.info

Track history (hours):
 
Tides and Currents Weather Stations Pressure Air Temp Water Temp Dewpoint Dewpoint Depression Visibility Wind Speed Wind Dir Waves Ship Positions

Hafnia Karava

Last reported at 2018-Jun-12 19:25 UTC. Time now 2018-Jun-21 16:29 UTC.
Position N 28°42' W 095°13'.
Warning: this ship's position is 8 days out of date.

Length 182 m; draft 7.7 m.

Type: Ship. MMSI: 565977000.

Date/timePositionNaut miles runAvg speedWind from/ knotsBaromVisibWave heightAir tempDewpointWater temp
2018-Jun-12 19:25N 28°42' W 095°13'612.5
2018-Jun-12 18:55N 28°45' W 095°07'512.3
2018-Jun-12 18:30N 28°48' W 095°02'612.3
2018-Jun-12 18:00N 28°51' W 094°56'612.3
2018-Jun-12 17:30N 28°54' W 094°50'612.3
2018-Jun-12 17:00N 28°58' W 094°44'712.3
2018-Jun-12 16:27N 29°02' W 094°38'511.1
2018-Jun-12 16:00N 29°06' W 094°35'3 5.5
2018-Jun-12 15:30N 29°09' W 094°35'0 0.2
2018-Jun-12 15:00N 29°09' W 094°35'0 0.0
2018-Jun-12 14:30N 29°09' W 094°35'0 0.0
2018-Jun-12 01:45N 29°09' W 094°35'0 0.0
2018-Jun-12 01:24N 29°09' W 094°35'0 0.1
2018-Jun-12 00:48N 29°09' W 094°35'0 0.1
2018-Jun-12 00:21N 29°09' W 094°35'0 0.0
2018-Jun-11 23:54N 29°09' W 094°35'0 0.0
2018-Jun-11 23:12N 29°09' W 094°35'0 0.0
2018-Jun-11 22:18N 29°09' W 094°35'0 0.0
2018-Jun-11 21:57N 29°09' W 094°35'0 0.0
2018-Jun-11 21:30N 29°09' W 094°35'0 0.1
2018-Jun-11 20:57N 29°09' W 094°35'0 0.1
2018-Jun-11 20:30N 29°09' W 094°35'0 0.0
2018-Jun-11 19:48N 29°09' W 094°35'0 0.0
2018-Jun-11 19:24N 29°09' W 094°35'0 0.0
2018-Jun-11 18:48N 29°09' W 094°35'0 0.1
2018-Jun-11 18:30N 29°09' W 094°35'0 0.0
2018-Jun-11 17:54N 29°09' W 094°35'0 0.1
2018-Jun-11 16:51N 29°09' W 094°35'0 0.0
2018-Jun-11 14:57N 29°09' W 094°35'0 0.0
2018-Jun-11 14:06N 29°09' W 094°35'0 0.0
2018-Jun-11 13:48N 29°09' W 094°35'0 0.0
2018-Jun-11 12:09N 29°09' W 094°35'0 0.1
2018-Jun-11 11:45N 29°09' W 094°35'0 0.0
2018-Jun-11 11:00N 29°09' W 094°35'0 0.0
2018-Jun-11 05:54N 29°09' W 094°35'0 0.0
2018-Jun-10 23:27N 29°09' W 094°35'0 0.0
2018-Jun-10 22:12N 29°09' W 094°35'0 0.1
2018-Jun-10 21:47N 29°09' W 094°35'0 0.0
2018-Jun-10 13:23N 29°09' W 094°35'0 0.0
2018-Jun-10 12:47N 29°09' W 094°35'0 0.0
2018-Jun-10 07:20N 29°09' W 094°35'12 0.7
2018-Jun-09 13:14N 29°20' W 094°41'1411.8
2018-Jun-09 12:05N 29°30' W 094°52'212.5
2018-Jun-09 11:56N 29°31' W 094°53'612.6
2018-Jun-09 11:30N 29°36' W 094°57'612.0
2018-Jun-09 11:00N 29°41' W 094°59'5 9.1
2018-Jun-09 10:29N 29°44' W 095°03'  
2018-Jun-07 04:25N 29°44' W 095°13'1 1.8
2018-Jun-07 03:50N 29°44' W 095°12'2 4.7
2018-Jun-07 03:30N 29°45' W 095°11'4 5.8
2018-Jun-07 02:46N 29°45' W 095°06'2 5.8
2018-Jun-07 02:30N 29°45' W 095°04'4 6.8
2018-Jun-07 01:56N 29°42' W 095°01'4 8.5
2018-Jun-07 01:31N 29°39' W 094°58'5 9.9
2018-Jun-07 01:01N 29°35' W 094°56'610.5
2018-Jun-07 00:29N 29°30' W 094°52'511.0
2018-Jun-07 00:01N 29°26' W 094°50'510.7
2018-Jun-06 23:31N 29°21' W 094°47'610.8
2018-Jun-06 23:00N 29°20' W 094°41'610.5
2018-Jun-06 22:28N 29°17' W 094°35'3 6.6
2018-Jun-06 22:00N 29°16' W 094°32'4 7.1
2018-Jun-06 21:28N 29°16' W 094°28'0 0.0
2018-Jun-06 02:37N 29°16' W 094°28'0 0.0
2018-Jun-06 02:10N 29°16' W 094°28'0 0.0
2018-Jun-06 01:52N 29°16' W 094°28'0 0.0
2018-Jun-06 01:28N 29°16' W 094°28'0 0.0
2018-Jun-06 01:01N 29°16' W 094°28'0 0.0
2018-Jun-06 00:28N 29°16' W 094°28'0 0.0
2018-Jun-05 23:58N 29°16' W 094°28'0 0.0
2018-Jun-05 23:28N 29°16' W 094°28'0 0.0
2018-Jun-05 23:01N 29°16' W 094°28'0 0.0
2018-Jun-05 22:30N 29°16' W 094°28'0 0.0
2018-Jun-05 21:31N 29°16' W 094°28'0 0.0
2018-Jun-05 05:37N 29°16' W 094°28'0 0.0
2018-Jun-05 05:25N 29°16' W 094°28'0 0.0
2018-Jun-05 03:52N 29°16' W 094°28'0 0.0
2018-Jun-05 03:25N 29°16' W 094°28'0 0.0
2018-Jun-05 03:01N 29°16' W 094°28'0 0.0
2018-Jun-05 02:31N 29°16' W 094°28'0 0.0
2018-Jun-05 01:54N 29°16' W 094°28'0 0.0
2018-Jun-05 01:27N 29°16' W 094°28'0 0.0
2018-Jun-05 00:55N 29°16' W 094°28'0 0.0
2018-Jun-04 06:39N 29°16' W 094°28'0 0.0
2018-Jun-04 06:28N 29°16' W 094°28'0 0.0
2018-Jun-04 05:48N 29°16' W 094°28'0 0.0
2018-Jun-04 05:31N 29°16' W 094°28'0 0.0
2018-Jun-04 04:52N 29°16' W 094°28'0 0.0
2018-Jun-04 04:28N 29°16' W 094°28'0 0.0
2018-Jun-04 04:01N 29°16' W 094°28'0 0.0
2018-Jun-04 00:49N 29°16' W 094°28'0 0.0
2018-Jun-04 00:25N 29°16' W 094°28'0 0.2
2018-Jun-03 23:59N 29°16' W 094°28'2 3.3
2018-Jun-03 23:30N 29°15' W 094°29'511.0
2018-Jun-03 23:00N 29°11' W 094°25'1014.1
2018-Jun-03 22:19N 29°05' W 094°16'414.0
2018-Jun-03 22:00N 29°03' W 094°12'714.3
2018-Jun-03 21:30N 28°59' W 094°05'1014.1
2018-Jun-03 20:49N 28°53' W 093°56'  
Track history (hours):
 
Tides and Currents Weather Stations Pressure Air Temp Water Temp Dewpoint Dewpoint Depression Visibility Wind Speed Wind Dir Waves Ship Positions

Hafnia Karava

Last reported at 2018-Jun-12 19:25 UTC. Time now 2018-Jun-21 16:30 UTC.
Position N 28°42' W 095°13'.
Warning: this ship's position is 8 days out of date.

Length 182 m; draft 7.7 m.

Type: Ship. MMSI: 565977000.

Date/timePositionNaut miles runAvg speedWind from/ knotsBaromVisibWave heightAir tempDewpointWater temp
2018-Jun-12 19:25N 28°42' W 095°13'612.5
2018-Jun-12 18:55N 28°45' W 095°07'512.3
2018-Jun-12 18:30N 28°48' W 095°02'612.3
2018-Jun-12 18:00N 28°51' W 094°56'612.3
2018-Jun-12 17:30N 28°54' W 094°50'612.3
2018-Jun-12 17:00N 28°58' W 094°44'712.3
2018-Jun-12 16:27N 29°02' W 094°38'511.1
2018-Jun-12 16:00N 29°06' W 094°35'3 5.5
2018-Jun-12 15:30N 29°09' W 094°35'0 0.2
2018-Jun-12 15:00N 29°09' W 094°35'0 0.0
2018-Jun-12 14:30N 29°09' W 094°35'0 0.0
2018-Jun-12 01:45N 29°09' W 094°35'0 0.0
2018-Jun-12 01:24N 29°09' W 094°35'0 0.1
2018-Jun-12 00:48N 29°09' W 094°35'0 0.1
2018-Jun-12 00:21N 29°09' W 094°35'0 0.0
2018-Jun-11 23:54N 29°09' W 094°35'0 0.0
2018-Jun-11 23:12N 29°09' W 094°35'0 0.0
2018-Jun-11 22:18N 29°09' W 094°35'0 0.0
2018-Jun-11 21:57N 29°09' W 094°35'0 0.0
2018-Jun-11 21:30N 29°09' W 094°35'0 0.1
2018-Jun-11 20:57N 29°09' W 094°35'0 0.1
2018-Jun-11 20:30N 29°09' W 094°35'0 0.0
2018-Jun-11 19:48N 29°09' W 094°35'0 0.0
2018-Jun-11 19:24N 29°09' W 094°35'0 0.0
2018-Jun-11 18:48N 29°09' W 094°35'0 0.1
2018-Jun-11 18:30N 29°09' W 094°35'0 0.0
2018-Jun-11 17:54N 29°09' W 094°35'0 0.1
2018-Jun-11 16:51N 29°09' W 094°35'0 0.0
2018-Jun-11 14:57N 29°09' W 094°35'0 0.0
2018-Jun-11 14:06N 29°09' W 094°35'0 0.0
2018-Jun-11 13:48N 29°09' W 094°35'0 0.0
2018-Jun-11 12:09N 29°09' W 094°35'0 0.1
2018-Jun-11 11:45N 29°09' W 094°35'0 0.0
2018-Jun-11 11:00N 29°09' W 094°35'0 0.0
2018-Jun-11 05:54N 29°09' W 094°35'0 0.0
2018-Jun-10 23:27N 29°09' W 094°35'0 0.0
2018-Jun-10 22:12N 29°09' W 094°35'0 0.1
2018-Jun-10 21:47N 29°09' W 094°35'0 0.0
2018-Jun-10 13:23N 29°09' W 094°35'0 0.0
2018-Jun-10 12:47N 29°09' W 094°35'0 0.0
2018-Jun-10 07:20N 29°09' W 094°35'12 0.7
2018-Jun-09 13:14N 29°20' W 094°41'1411.8
2018-Jun-09 12:05N 29°30' W 094°52'212.5
2018-Jun-09 11:56N 29°31' W 094°53'612.6
2018-Jun-09 11:30N 29°36' W 094°57'612.0
2018-Jun-09 11:00N 29°41' W 094°59'5 9.1
2018-Jun-09 10:29N 29°44' W 095°03'  
2018-Jun-07 04:25N 29°44' W 095°13'1 1.8
2018-Jun-07 03:50N 29°44' W 095°12'2 4.7
2018-Jun-07 03:30N 29°45' W 095°11'4 5.8
2018-Jun-07 02:46N 29°45' W 095°06'2 5.8
2018-Jun-07 02:30N 29°45' W 095°04'4 6.8
2018-Jun-07 01:56N 29°42' W 095°01'4 8.5
2018-Jun-07 01:31N 29°39' W 094°58'5 9.9
2018-Jun-07 01:01N 29°35' W 094°56'610.5
2018-Jun-07 00:29N 29°30' W 094°52'511.0
2018-Jun-07 00:01N 29°26' W 094°50'510.7
2018-Jun-06 23:31N 29°21' W 094°47'610.8
2018-Jun-06 23:00N 29°20' W 094°41'610.5
2018-Jun-06 22:28N 29°17' W 094°35'3 6.6
2018-Jun-06 22:00N 29°16' W 094°32'4 7.1
2018-Jun-06 21:28N 29°16' W 094°28'0 0.0
2018-Jun-06 02:37N 29°16' W 094°28'0 0.0
2018-Jun-06 02:10N 29°16' W 094°28'0 0.0
2018-Jun-06 01:52N 29°16' W 094°28'0 0.0
2018-Jun-06 01:28N 29°16' W 094°28'0 0.0
2018-Jun-06 01:01N 29°16' W 094°28'0 0.0
2018-Jun-06 00:28N 29°16' W 094°28'0 0.0
2018-Jun-05 23:58N 29°16' W 094°28'0 0.0
2018-Jun-05 23:28N 29°16' W 094°28'0 0.0
2018-Jun-05 23:01N 29°16' W 094°28'0 0.0
2018-Jun-05 22:30N 29°16' W 094°28'0 0.0
2018-Jun-05 21:31N 29°16' W 094°28'0 0.0
2018-Jun-05 05:37N 29°16' W 094°28'0 0.0
2018-Jun-05 05:25N 29°16' W 094°28'0 0.0
2018-Jun-05 03:52N 29°16' W 094°28'0 0.0
2018-Jun-05 03:25N 29°16' W 094°28'0 0.0
2018-Jun-05 03:01N 29°16' W 094°28'0 0.0
2018-Jun-05 02:31N 29°16' W 094°28'0 0.0
2018-Jun-05 01:54N 29°16' W 094°28'0 0.0
2018-Jun-05 01:27N 29°16' W 094°28'0 0.0
2018-Jun-05 00:55N 29°16' W 094°28'0 0.0
2018-Jun-04 06:39N 29°16' W 094°28'0 0.0
2018-Jun-04 06:28N 29°16' W 094°28'0 0.0
2018-Jun-04 05:48N 29°16' W 094°28'0 0.0
2018-Jun-04 05:31N 29°16' W 094°28'0 0.0
2018-Jun-04 04:52N 29°16' W 094°28'0 0.0
2018-Jun-04 04:28N 29°16' W 094°28'0 0.0
2018-Jun-04 04:01N 29°16' W 094°28'0 0.0
2018-Jun-04 00:49N 29°16' W 094°28'0 0.0
2018-Jun-04 00:25N 29°16' W 094°28'0 0.2
2018-Jun-03 23:59N 29°16' W 094°28'2 3.3
2018-Jun-03 23:30N 29°15' W 094°29'511.0
2018-Jun-03 23:00N 29°11' W 094°25'1014.1
2018-Jun-03 22:19N 29°05' W 094°16'414.0
2018-Jun-03 22:00N 29°03' W 094°12'714.3
2018-Jun-03 21:30N 28°59' W 094°05'1014.1
2018-Jun-03 20:49N 28°53' W 093°56'  

Dump ship's entire track history